sensor_id;sensor_type;location;lat;lon;timestamp;temperature;humidity
326;DHT22;150;52.352;14.058;2022-10-14T00:00:30;11.40;42.30
326;DHT22;150;52.352;14.058;2022-10-14T00:02:57;11.30;42.40
326;DHT22;150;52.352;14.058;2022-10-14T00:05:24;11.30;42.10
326;DHT22;150;52.352;14.058;2022-10-14T00:07:51;11.30;42.30
326;DHT22;150;52.352;14.058;2022-10-14T00:10:17;11.20;42.20
326;DHT22;150;52.352;14.058;2022-10-14T00:12:46;11.20;42.30
326;DHT22;150;52.352;14.058;2022-10-14T00:15:13;11.20;42.10
326;DHT22;150;52.352;14.058;2022-10-14T00:17:39;11.10;42.30
326;DHT22;150;52.352;14.058;2022-10-14T00:20:07;11.10;42.30
326;DHT22;150;52.352;14.058;2022-10-14T00:22:34;11.10;42.10
326;DHT22;150;52.352;14.058;2022-10-14T00:25:00;11.10;42.40
326;DHT22;150;52.352;14.058;2022-10-14T00:27:27;11.10;42.30
326;DHT22;150;52.352;14.058;2022-10-14T00:29:55;11.00;42.00
326;DHT22;150;52.352;14.058;2022-10-14T00:32:21;11.10;41.80
326;DHT22;150;52.352;14.058;2022-10-14T00:34:48;11.00;41.70
326;DHT22;150;52.352;14.058;2022-10-14T00:37:15;11.00;41.80
326;DHT22;150;52.352;14.058;2022-10-14T00:39:41;11.00;41.80
326;DHT22;150;52.352;14.058;2022-10-14T00:42:11;10.90;42.70
326;DHT22;150;52.352;14.058;2022-10-14T00:45:03;10.90;41.90
326;DHT22;150;52.352;14.058;2022-10-14T00:47:30;10.80;42.00
326;DHT22;150;52.352;14.058;2022-10-14T00:49:58;10.80;42.20
326;DHT22;150;52.352;14.058;2022-10-14T00:52:26;10.80;42.10
326;DHT22;150;52.352;14.058;2022-10-14T00:54:55;10.70;42.10
326;DHT22;150;52.352;14.058;2022-10-14T00:57:23;10.60;42.30
326;DHT22;150;52.352;14.058;2022-10-14T00:59:51;10.60;42.70
326;DHT22;150;52.352;14.058;2022-10-14T01:02:20;10.60;42.90
326;DHT22;150;52.352;14.058;2022-10-14T01:04:57;10.60;43.00
326;DHT22;150;52.352;14.058;2022-10-14T01:08:01;10.60;43.30
326;DHT22;150;52.352;14.058;2022-10-14T01:10:40;10.70;43.20
326;DHT22;150;52.352;14.058;2022-10-14T01:13:19;10.70;42.80
326;DHT22;150;52.352;14.058;2022-10-14T01:15:55;10.70;42.90
326;DHT22;150;52.352;14.058;2022-10-14T01:18:36;10.70;42.80
326;DHT22;150;52.352;14.058;2022-10-14T01:21:16;10.70;42.70
326;DHT22;150;52.352;14.058;2022-10-14T01:24:11;10.80;42.80
326;DHT22;150;52.352;14.058;2022-10-14T01:30:07;10.80;42.30
326;DHT22;150;52.352;14.058;2022-10-14T01:32:41;10.70;42.00
326;DHT22;150;52.352;14.058;2022-10-14T01:35:19;10.70;42.10
326;DHT22;150;52.352;14.058;2022-10-14T01:37:49;10.50;42.30
326;DHT22;150;52.352;14.058;2022-10-14T01:40:23;10.50;42.70
326;DHT22;150;52.352;14.058;2022-10-14T01:42:52;10.60;42.50
326;DHT22;150;52.352;14.058;2022-10-14T01:45:21;10.60;41.80
326;DHT22;150;52.352;14.058;2022-10-14T01:47:50;10.60;41.30
326;DHT22;150;52.352;14.058;2022-10-14T01:50:19;10.60;41.70
326;DHT22;150;52.352;14.058;2022-10-14T01:52:50;10.60;41.80
326;DHT22;150;52.352;14.058;2022-10-14T01:55:21;10.50;41.90
326;DHT22;150;52.352;14.058;2022-10-14T01:57:50;10.40;41.80
326;DHT22;150;52.352;14.058;2022-10-14T02:00:20;10.40;42.00
326;DHT22;150;52.352;14.058;2022-10-14T02:02:46;10.30;42.00
326;DHT22;150;52.352;14.058;2022-10-14T02:05:16;10.40;42.10
326;DHT22;150;52.352;14.058;2022-10-14T02:07:46;10.30;41.90
326;DHT22;150;52.352;14.058;2022-10-14T02:10:20;10.40;42.00
326;DHT22;150;52.352;14.058;2022-10-14T02:12:59;10.40;41.90
326;DHT22;150;52.352;14.058;2022-10-14T02:15:37;10.40;41.90
326;DHT22;150;52.352;14.058;2022-10-14T02:18:10;10.40;41.30
326;DHT22;150;52.352;14.058;2022-10-14T02:20:41;10.40;41.10
326;DHT22;150;52.352;14.058;2022-10-14T02:23:13;10.40;40.80
326;DHT22;150;52.352;14.058;2022-10-14T02:25:44;10.30;40.90
326;DHT22;150;52.352;14.058;2022-10-14T02:28:15;10.30;40.70
326;DHT22;150;52.352;14.058;2022-10-14T02:30:48;10.30;40.60
326;DHT22;150;52.352;14.058;2022-10-14T02:33:17;10.30;40.70
326;DHT22;150;52.352;14.058;2022-10-14T02:35:46;10.10;40.40
326;DHT22;150;52.352;14.058;2022-10-14T02:38:14;10.10;41.00
326;DHT22;150;52.352;14.058;2022-10-14T02:40:45;10.10;41.00
326;DHT22;150;52.352;14.058;2022-10-14T02:43:12;10.00;41.10
326;DHT22;150;52.352;14.058;2022-10-14T02:45:41;10.10;41.60
326;DHT22;150;52.352;14.058;2022-10-14T02:48:10;10.10;41.50
326;DHT22;150;52.352;14.058;2022-10-14T02:50:37;10.10;41.50
326;DHT22;150;52.352;14.058;2022-10-14T02:53:04;10.10;41.20
326;DHT22;150;52.352;14.058;2022-10-14T02:55:30;10.10;41.90
326;DHT22;150;52.352;14.058;2022-10-14T02:57:57;10.00;42.00
326;DHT22;150;52.352;14.058;2022-10-14T03:00:23;10.10;42.10
326;DHT22;150;52.352;14.058;2022-10-14T03:02:50;10.10;42.00
326;DHT22;150;52.352;14.058;2022-10-14T03:05:18;10.10;41.70
326;DHT22;150;52.352;14.058;2022-10-14T03:07:45;10.10;41.60
326;DHT22;150;52.352;14.058;2022-10-14T03:10:11;10.20;41.80
326;DHT22;150;52.352;14.058;2022-10-14T03:12:38;10.20;41.90
326;DHT22;150;52.352;14.058;2022-10-14T03:15:06;10.20;41.80
326;DHT22;150;52.352;14.058;2022-10-14T03:17:32;10.10;42.30
326;DHT22;150;52.352;14.058;2022-10-14T03:19:59;10.20;42.80
326;DHT22;150;52.352;14.058;2022-10-14T03:22:27;10.20;42.80
326;DHT22;150;52.352;14.058;2022-10-14T03:24:54;10.20;43.20
326;DHT22;150;52.352;14.058;2022-10-14T03:27:20;10.20;43.20
326;DHT22;150;52.352;14.058;2022-10-14T03:29:47;10.30;43.40
326;DHT22;150;52.352;14.058;2022-10-14T03:32:14;10.30;43.30
326;DHT22;150;52.352;14.058;2022-10-14T03:34:40;10.40;43.40
326;DHT22;150;52.352;14.058;2022-10-14T03:37:07;10.50;43.50
326;DHT22;150;52.352;14.058;2022-10-14T03:39:35;10.40;43.50
326;DHT22;150;52.352;14.058;2022-10-14T03:42:02;10.40;43.40
326;DHT22;150;52.352;14.058;2022-10-14T03:44:29;10.50;43.80
326;DHT22;150;52.352;14.058;2022-10-14T03:46:55;10.60;43.60
326;DHT22;150;52.352;14.058;2022-10-14T03:49:22;10.60;43.60
326;DHT22;150;52.352;14.058;2022-10-14T03:51:49;10.60;43.60
326;DHT22;150;52.352;14.058;2022-10-14T03:54:15;10.70;43.70
326;DHT22;150;52.352;14.058;2022-10-14T03:56:43;10.80;43.80
326;DHT22;150;52.352;14.058;2022-10-14T03:59:10;10.80;43.70
326;DHT22;150;52.352;14.058;2022-10-14T04:01:36;10.90;43.90
326;DHT22;150;52.352;14.058;2022-10-14T04:04:03;10.90;43.80
326;DHT22;150;52.352;14.058;2022-10-14T04:06:30;10.90;43.90
326;DHT22;150;52.352;14.058;2022-10-14T04:08:56;11.00;44.00
326;DHT22;150;52.352;14.058;2022-10-14T04:11:23;11.00;43.90
326;DHT22;150;52.352;14.058;2022-10-14T04:13:51;11.10;44.10
326;DHT22;150;52.352;14.058;2022-10-14T04:16:18;11.20;44.10
326;DHT22;150;52.352;14.058;2022-10-14T04:18:44;11.20;44.10
326;DHT22;150;52.352;14.058;2022-10-14T04:21:11;11.20;44.10
326;DHT22;150;52.352;14.058;2022-10-14T04:23:38;11.30;44.20
326;DHT22;150;52.352;14.058;2022-10-14T04:26:06;11.20;44.10
326;DHT22;150;52.352;14.058;2022-10-14T04:28:33;11.30;44.20
326;DHT22;150;52.352;14.058;2022-10-14T04:31:02;11.30;44.20
326;DHT22;150;52.352;14.058;2022-10-14T04:33:29;11.30;44.20
326;DHT22;150;52.352;14.058;2022-10-14T04:35:59;11.40;44.30
326;DHT22;150;52.352;14.058;2022-10-14T04:38:26;11.40;44.30
326;DHT22;150;52.352;14.058;2022-10-14T04:40:53;11.40;44.30
326;DHT22;150;52.352;14.058;2022-10-14T04:43:20;11.40;44.30
326;DHT22;150;52.352;14.058;2022-10-14T04:45:47;11.40;44.30
326;DHT22;150;52.352;14.058;2022-10-14T04:48:15;11.40;44.30
326;DHT22;150;52.352;14.058;2022-10-14T04:50:42;11.40;44.30
326;DHT22;150;52.352;14.058;2022-10-14T04:53:09;11.50;44.40
326;DHT22;150;52.352;14.058;2022-10-14T04:55:36;11.50;44.40
326;DHT22;150;52.352;14.058;2022-10-14T04:58:02;11.50;44.40
326;DHT22;150;52.352;14.058;2022-10-14T05:00:29;11.60;44.50
326;DHT22;150;52.352;14.058;2022-10-14T05:02:56;11.60;44.50
326;DHT22;150;52.352;14.058;2022-10-14T05:05:24;11.60;44.40
326;DHT22;150;52.352;14.058;2022-10-14T05:07:50;11.60;44.40
326;DHT22;150;52.352;14.058;2022-10-14T05:10:17;11.60;44.10
326;DHT22;150;52.352;14.058;2022-10-14T05:12:43;11.60;43.90
326;DHT22;150;52.352;14.058;2022-10-14T05:15:10;11.60;43.90
326;DHT22;150;52.352;14.058;2022-10-14T05:17:37;11.60;44.50
326;DHT22;150;52.352;14.058;2022-10-14T05:20:05;11.60;44.40
326;DHT22;150;52.352;14.058;2022-10-14T05:22:33;11.60;44.50
326;DHT22;150;52.352;14.058;2022-10-14T05:24:59;11.60;44.40
326;DHT22;150;52.352;14.058;2022-10-14T05:27:26;11.70;44.50
326;DHT22;150;52.352;14.058;2022-10-14T05:29:53;11.60;44.80
326;DHT22;150;52.352;14.058;2022-10-14T05:32:20;11.60;43.90
326;DHT22;150;52.352;14.058;2022-10-14T05:34:46;11.60;44.50
326;DHT22;150;52.352;14.058;2022-10-14T05:37:13;11.60;44.40
326;DHT22;150;52.352;14.058;2022-10-14T05:39:41;11.60;44.40
326;DHT22;150;52.352;14.058;2022-10-14T05:42:07;11.60;44.20
326;DHT22;150;52.352;14.058;2022-10-14T05:44:34;11.60;43.90
326;DHT22;150;52.352;14.058;2022-10-14T05:47:01;11.60;43.80
326;DHT22;150;52.352;14.058;2022-10-14T05:49:27;11.60;43.80
326;DHT22;150;52.352;14.058;2022-10-14T05:51:54;11.50;43.40
326;DHT22;150;52.352;14.058;2022-10-14T05:54:21;11.50;43.70
326;DHT22;150;52.352;14.058;2022-10-14T05:56:49;11.50;43.80
326;DHT22;150;52.352;14.058;2022-10-14T05:59:15;11.50;43.90
326;DHT22;150;52.352;14.058;2022-10-14T06:01:42;11.50;43.70
326;DHT22;150;52.352;14.058;2022-10-14T06:04:15;11.50;43.40
326;DHT22;150;52.352;14.058;2022-10-14T06:06:42;11.40;43.40
326;DHT22;150;52.352;14.058;2022-10-14T06:09:09;11.40;43.80
326;DHT22;150;52.352;14.058;2022-10-14T06:11:35;11.40;43.60
326;DHT22;150;52.352;14.058;2022-10-14T06:14:03;11.40;43.70
326;DHT22;150;52.352;14.058;2022-10-14T06:16:30;11.40;43.70
326;DHT22;150;52.352;14.058;2022-10-14T06:18:57;11.40;44.30
326;DHT22;150;52.352;14.058;2022-10-14T06:21:23;11.40;44.30
326;DHT22;150;52.352;14.058;2022-10-14T06:23:50;11.50;44.40
326;DHT22;150;52.352;14.058;2022-10-14T06:26:17;11.50;44.40
326;DHT22;150;52.352;14.058;2022-10-14T06:28:43;11.60;44.40
326;DHT22;150;52.352;14.058;2022-10-14T06:31:12;11.60;44.40
326;DHT22;150;52.352;14.058;2022-10-14T06:33:38;11.70;44.50
326;DHT22;150;52.352;14.058;2022-10-14T06:36:06;11.80;44.70
326;DHT22;150;52.352;14.058;2022-10-14T06:38:33;11.90;44.80
326;DHT22;150;52.352;14.058;2022-10-14T06:40:59;12.00;44.80
326;DHT22;150;52.352;14.058;2022-10-14T06:43:26;12.10;44.90
326;DHT22;150;52.352;14.058;2022-10-14T06:45:55;12.10;44.90
326;DHT22;150;52.352;14.058;2022-10-14T06:48:23;12.20;45.00
326;DHT22;150;52.352;14.058;2022-10-14T06:50:50;12.30;45.10
326;DHT22;150;52.352;14.058;2022-10-14T06:53:17;12.30;45.10
326;DHT22;150;52.352;14.058;2022-10-14T06:55:43;12.40;45.00
326;DHT22;150;52.352;14.058;2022-10-14T06:58:10;12.50;45.30
326;DHT22;150;52.352;14.058;2022-10-14T07:00:37;12.50;45.10
326;DHT22;150;52.352;14.058;2022-10-14T07:03:15;12.60;45.30
326;DHT22;150;52.352;14.058;2022-10-14T07:05:57;12.60;45.30
326;DHT22;150;52.352;14.058;2022-10-14T07:08:25;12.70;45.40
326;DHT22;150;52.352;14.058;2022-10-14T07:11:17;12.80;46.30
326;DHT22;150;52.352;14.058;2022-10-14T07:14:15;12.90;45.60
326;DHT22;150;52.352;14.058;2022-10-14T07:20:27;13.00;45.70
326;DHT22;150;52.352;14.058;2022-10-14T07:23:08;13.20;45.90
326;DHT22;150;52.352;14.058;2022-10-14T07:25:35;13.20;46.60
326;DHT22;150;52.352;14.058;2022-10-14T07:28:02;13.30;46.00
326;DHT22;150;52.352;14.058;2022-10-14T07:30:28;13.40;45.80
326;DHT22;150;52.352;14.058;2022-10-14T07:32:55;13.50;45.70
326;DHT22;150;52.352;14.058;2022-10-14T07:35:22;13.50;45.50
326;DHT22;150;52.352;14.058;2022-10-14T07:37:50;13.60;45.10
326;DHT22;150;52.352;14.058;2022-10-14T07:40:18;13.70;45.10
326;DHT22;150;52.352;14.058;2022-10-14T07:42:45;13.80;45.00
326;DHT22;150;52.352;14.058;2022-10-14T07:45:12;13.80;45.10
326;DHT22;150;52.352;14.058;2022-10-14T07:47:41;13.90;45.10
326;DHT22;150;52.352;14.058;2022-10-14T07:50:08;14.00;45.10
326;DHT22;150;52.352;14.058;2022-10-14T07:52:35;14.10;45.20
326;DHT22;150;52.352;14.058;2022-10-14T07:55:02;14.20;45.30
326;DHT22;150;52.352;14.058;2022-10-14T07:57:30;14.20;45.20
326;DHT22;150;52.352;14.058;2022-10-14T07:59:57;14.30;45.30
326;DHT22;150;52.352;14.058;2022-10-14T08:02:23;14.40;45.00
326;DHT22;150;52.352;14.058;2022-10-14T08:04:51;14.40;45.00
326;DHT22;150;52.352;14.058;2022-10-14T08:07:17;14.50;44.80
326;DHT22;150;52.352;14.058;2022-10-14T08:09:44;14.60;44.90
326;DHT22;150;52.352;14.058;2022-10-14T08:12:11;14.60;45.00
326;DHT22;150;52.352;14.058;2022-10-14T08:14:39;14.70;45.00
326;DHT22;150;52.352;14.058;2022-10-14T08:17:06;14.80;45.30
326;DHT22;150;52.352;14.058;2022-10-14T08:19:33;14.90;45.40
326;DHT22;150;52.352;14.058;2022-10-14T08:21:59;14.90;45.50
326;DHT22;150;52.352;14.058;2022-10-14T08:24:26;15.00;45.70
326;DHT22;150;52.352;14.058;2022-10-14T08:26:55;15.10;45.80
326;DHT22;150;52.352;14.058;2022-10-14T08:29:22;15.30;45.90
326;DHT22;150;52.352;14.058;2022-10-14T08:31:50;15.30;46.00
326;DHT22;150;52.352;14.058;2022-10-14T08:34:19;15.40;46.00
326;DHT22;150;52.352;14.058;2022-10-14T08:36:48;15.50;45.90
326;DHT22;150;52.352;14.058;2022-10-14T08:39:16;15.60;46.00
326;DHT22;150;52.352;14.058;2022-10-14T08:42:04;15.70;46.10
326;DHT22;150;52.352;14.058;2022-10-14T08:44:40;15.80;45.90
326;DHT22;150;52.352;14.058;2022-10-14T08:47:12;15.90;45.00
326;DHT22;150;52.352;14.058;2022-10-14T08:49:51;16.00;45.00
326;DHT22;150;52.352;14.058;2022-10-14T08:52:24;16.00;44.80
326;DHT22;150;52.352;14.058;2022-10-14T08:54:56;16.10;44.60
326;DHT22;150;52.352;14.058;2022-10-14T08:57:26;16.10;44.20
326;DHT22;150;52.352;14.058;2022-10-14T08:59:53;16.20;44.50
326;DHT22;150;52.352;14.058;2022-10-14T09:02:30;16.30;44.50
326;DHT22;150;52.352;14.058;2022-10-14T09:04:58;16.40;44.40
326;DHT22;150;52.352;14.058;2022-10-14T09:07:27;16.50;44.30
326;DHT22;150;52.352;14.058;2022-10-14T09:09:59;16.60;42.70
326;DHT22;150;52.352;14.058;2022-10-14T09:12:29;16.60;42.80
326;DHT22;150;52.352;14.058;2022-10-14T09:15:02;16.70;42.70
326;DHT22;150;52.352;14.058;2022-10-14T09:17:35;16.70;42.20
326;DHT22;150;52.352;14.058;2022-10-14T09:20:15;16.80;41.50
326;DHT22;150;52.352;14.058;2022-10-14T09:22:43;16.90;41.60
326;DHT22;150;52.352;14.058;2022-10-14T09:25:13;16.90;41.70
326;DHT22;150;52.352;14.058;2022-10-14T09:27:40;17.00;41.70
326;DHT22;150;52.352;14.058;2022-10-14T09:30:12;17.10;41.40
326;DHT22;150;52.352;14.058;2022-10-14T09:32:44;17.20;40.60
326;DHT22;150;52.352;14.058;2022-10-14T09:35:17;17.10;38.90
326;DHT22;150;52.352;14.058;2022-10-14T09:37:45;17.00;38.70
326;DHT22;150;52.352;14.058;2022-10-14T09:40:17;16.90;39.00
326;DHT22;150;52.352;14.058;2022-10-14T09:42:49;16.90;39.60
326;DHT22;150;52.352;14.058;2022-10-14T09:45:18;16.90;39.50
326;DHT22;150;52.352;14.058;2022-10-14T09:47:52;16.90;39.50
326;DHT22;150;52.352;14.058;2022-10-14T09:50:23;17.00;39.70
326;DHT22;150;52.352;14.058;2022-10-14T09:52:53;17.10;39.60
326;DHT22;150;52.352;14.058;2022-10-14T09:55:21;17.20;38.80
326;DHT22;150;52.352;14.058;2022-10-14T09:58:00;17.30;38.90
326;DHT22;150;52.352;14.058;2022-10-14T10:00:30;17.50;39.10
326;DHT22;150;52.352;14.058;2022-10-14T10:02:59;17.40;38.30
326;DHT22;150;52.352;14.058;2022-10-14T10:05:28;17.50;39.10
326;DHT22;150;52.352;14.058;2022-10-14T10:08:14;17.60;37.60
326;DHT22;150;52.352;14.058;2022-10-14T10:10:41;17.70;37.70
326;DHT22;150;52.352;14.058;2022-10-14T10:13:22;17.70;37.20
326;DHT22;150;52.352;14.058;2022-10-14T10:15:58;17.70;37.40
326;DHT22;150;52.352;14.058;2022-10-14T10:18:26;17.80;37.00
326;DHT22;150;52.352;14.058;2022-10-14T10:21:00;17.80;37.20
326;DHT22;150;52.352;14.058;2022-10-14T10:23:29;18.10;37.20
326;DHT22;150;52.352;14.058;2022-10-14T10:26:14;18.30;36.70
326;DHT22;150;52.352;14.058;2022-10-14T10:28:44;18.40;35.30
326;DHT22;150;52.352;14.058;2022-10-14T10:31:20;18.60;35.80
326;DHT22;150;52.352;14.058;2022-10-14T10:33:56;18.80;34.50
326;DHT22;150;52.352;14.058;2022-10-14T10:36:30;18.90;33.80
326;DHT22;150;52.352;14.058;2022-10-14T10:39:02;19.10;33.40
326;DHT22;150;52.352;14.058;2022-10-14T10:41:45;18.90;33.00
326;DHT22;150;52.352;14.058;2022-10-14T10:44:27;18.90;33.30
326;DHT22;150;52.352;14.058;2022-10-14T10:47:17;18.90;33.50
326;DHT22;150;52.352;14.058;2022-10-14T10:50:21;18.80;33.40
326;DHT22;150;52.352;14.058;2022-10-14T10:52:58;18.80;34.20
326;DHT22;150;52.352;14.058;2022-10-14T10:55:32;18.90;33.70
326;DHT22;150;52.352;14.058;2022-10-14T10:58:11;19.10;33.50
326;DHT22;150;52.352;14.058;2022-10-14T11:00:47;19.10;32.80
326;DHT22;150;52.352;14.058;2022-10-14T11:03:30;19.10;31.90
326;DHT22;150;52.352;14.058;2022-10-14T11:06:07;19.10;32.50
326;DHT22;150;52.352;14.058;2022-10-14T11:08:48;19.20;32.90
326;DHT22;150;52.352;14.058;2022-10-14T11:11:42;19.40;31.60
326;DHT22;150;52.352;14.058;2022-10-14T11:14:37;19.60;31.50
326;DHT22;150;52.352;14.058;2022-10-14T11:17:11;19.70;31.30
326;DHT22;150;52.352;14.058;2022-10-14T11:19:45;19.80;30.10
326;DHT22;150;52.352;14.058;2022-10-14T11:22:27;19.60;29.60
326;DHT22;150;52.352;14.058;2022-10-14T11:25:03;19.60;29.40
326;DHT22;150;52.352;14.058;2022-10-14T11:27:38;19.40;29.90
326;DHT22;150;52.352;14.058;2022-10-14T11:30:15;19.40;30.10
326;DHT22;150;52.352;14.058;2022-10-14T11:32:53;19.40;29.90
326;DHT22;150;52.352;14.058;2022-10-14T11:35:31;19.40;30.40
326;DHT22;150;52.352;14.058;2022-10-14T11:38:12;19.50;30.00
326;DHT22;150;52.352;14.058;2022-10-14T11:40:46;19.50;30.00
326;DHT22;150;52.352;14.058;2022-10-14T11:43:21;19.20;30.60
326;DHT22;150;52.352;14.058;2022-10-14T11:45:52;19.20;30.70
326;DHT22;150;52.352;14.058;2022-10-14T11:48:31;19.20;31.60
326;DHT22;150;52.352;14.058;2022-10-14T11:51:06;19.40;31.90
326;DHT22;150;52.352;14.058;2022-10-14T11:53:43;19.50;31.00
326;DHT22;150;52.352;14.058;2022-10-14T11:56:20;19.50;30.00
326;DHT22;150;52.352;14.058;2022-10-14T11:58:50;19.50;30.20
326;DHT22;150;52.352;14.058;2022-10-14T12:01:24;19.50;30.00
326;DHT22;150;52.352;14.058;2022-10-14T12:03:59;19.50;30.00
326;DHT22;150;52.352;14.058;2022-10-14T12:06:32;19.40;30.50
326;DHT22;150;52.352;14.058;2022-10-14T12:09:04;19.40;30.80
326;DHT22;150;52.352;14.058;2022-10-14T12:11:35;19.40;30.90
326;DHT22;150;52.352;14.058;2022-10-14T12:14:08;19.30;31.30
326;DHT22;150;52.352;14.058;2022-10-14T12:16:38;19.20;31.40
326;DHT22;150;52.352;14.058;2022-10-14T12:19:07;19.20;31.50
326;DHT22;150;52.352;14.058;2022-10-14T12:21:39;19.10;31.80
326;DHT22;150;52.352;14.058;2022-10-14T12:24:12;19.10;31.70
326;DHT22;150;52.352;14.058;2022-10-14T12:26:54;19.00;31.90
326;DHT22;150;52.352;14.058;2022-10-14T12:29:24;18.90;32.20
326;DHT22;150;52.352;14.058;2022-10-14T12:32:07;18.90;32.60
326;DHT22;150;52.352;14.058;2022-10-14T12:34:36;18.80;32.50
326;DHT22;150;52.352;14.058;2022-10-14T12:40:25;18.70;33.10
326;DHT22;150;52.352;14.058;2022-10-14T12:43:11;18.70;33.80
326;DHT22;150;52.352;14.058;2022-10-14T12:45:48;18.70;33.50
326;DHT22;150;52.352;14.058;2022-10-14T12:48:18;18.60;34.00
326;DHT22;150;52.352;14.058;2022-10-14T12:50:46;18.50;33.80
326;DHT22;150;52.352;14.058;2022-10-14T12:53:21;18.60;34.10
326;DHT22;150;52.352;14.058;2022-10-14T12:55:54;18.50;34.00
326;DHT22;150;52.352;14.058;2022-10-14T12:58:25;18.50;34.50
326;DHT22;150;52.352;14.058;2022-10-14T13:00:58;18.60;34.60
326;DHT22;150;52.352;14.058;2022-10-14T13:04:16;18.70;34.50
326;DHT22;150;52.352;14.058;2022-10-14T13:07:12;18.80;33.90
326;DHT22;150;52.352;14.058;2022-10-14T13:09:56;18.80;34.20
326;DHT22;150;52.352;14.058;2022-10-14T13:23:44;18.50;32.50
326;DHT22;150;52.352;14.058;2022-10-14T13:27:00;18.70;32.70
326;DHT22;150;52.352;14.058;2022-10-14T13:30:16;18.70;31.30
326;DHT22;150;52.352;14.058;2022-10-14T13:32:57;18.70;31.40
326;DHT22;150;52.352;14.058;2022-10-14T13:35:31;18.90;31.90
326;DHT22;150;52.352;14.058;2022-10-14T13:38:01;18.90;31.70
326;DHT22;150;52.352;14.058;2022-10-14T13:40:38;18.90;30.50
326;DHT22;150;52.352;14.058;2022-10-14T13:43:16;18.90;30.40
326;DHT22;150;52.352;14.058;2022-10-14T13:45:57;18.90;31.00
326;DHT22;150;52.352;14.058;2022-10-14T13:48:38;18.90;30.70
326;DHT22;150;52.352;14.058;2022-10-14T13:51:27;18.90;31.10
326;DHT22;150;52.352;14.058;2022-10-14T13:53:56;19.00;31.50
326;DHT22;150;52.352;14.058;2022-10-14T13:56:30;19.10;31.10
326;DHT22;150;52.352;14.058;2022-10-14T13:58:57;18.90;30.30
326;DHT22;150;52.352;14.058;2022-10-14T14:01:37;19.00;31.00
326;DHT22;150;52.352;14.058;2022-10-14T14:04:20;19.00;30.70
326;DHT22;150;52.352;14.058;2022-10-14T14:06:51;19.20;30.80
326;DHT22;150;52.352;14.058;2022-10-14T14:09:23;19.40;29.90
326;DHT22;150;52.352;14.058;2022-10-14T14:11:57;19.70;30.10
326;DHT22;150;52.352;14.058;2022-10-14T14:14:35;19.90;29.90
326;DHT22;150;52.352;14.058;2022-10-14T14:17:13;20.00;28.80
326;DHT22;150;52.352;14.058;2022-10-14T14:19:50;20.10;28.80
326;DHT22;150;52.352;14.058;2022-10-14T14:22:19;20.10;28.30
326;DHT22;150;52.352;14.058;2022-10-14T14:24:51;20.10;28.50
326;DHT22;150;52.352;14.058;2022-10-14T14:27:22;19.90;28.20
326;DHT22;150;52.352;14.058;2022-10-14T14:29:58;19.90;28.30
326;DHT22;150;52.352;14.058;2022-10-14T14:32:31;19.90;28.20
326;DHT22;150;52.352;14.058;2022-10-14T14:34:59;19.90;28.50
326;DHT22;150;52.352;14.058;2022-10-14T14:40:21;20.00;28.70
326;DHT22;150;52.352;14.058;2022-10-14T14:43:00;19.80;28.30
326;DHT22;150;52.352;14.058;2022-10-14T14:45:50;19.80;28.50
326;DHT22;150;52.352;14.058;2022-10-14T14:48:17;19.70;28.60
326;DHT22;150;52.352;14.058;2022-10-14T14:50:51;19.60;28.80
326;DHT22;150;52.352;14.058;2022-10-14T14:53:20;19.50;29.50
326;DHT22;150;52.352;14.058;2022-10-14T14:58:51;19.50;30.00
326;DHT22;150;52.352;14.058;2022-10-14T15:01:21;19.50;30.00
326;DHT22;150;52.352;14.058;2022-10-14T15:03:56;19.50;30.00
326;DHT22;150;52.352;14.058;2022-10-14T15:06:24;19.40;29.90
326;DHT22;150;52.352;14.058;2022-10-14T15:08:54;19.40;29.90
326;DHT22;150;52.352;14.058;2022-10-14T15:11:22;19.30;29.90
326;DHT22;150;52.352;14.058;2022-10-14T15:13:52;19.20;30.10
326;DHT22;150;52.352;14.058;2022-10-14T15:16:32;19.10;30.60
326;DHT22;150;52.352;14.058;2022-10-14T15:19:13;19.10;30.80
326;DHT22;150;52.352;14.058;2022-10-14T15:24:56;18.80;31.60
326;DHT22;150;52.352;14.058;2022-10-14T15:27:30;18.80;32.10
326;DHT22;150;52.352;14.058;2022-10-14T15:30:48;18.80;32.50
326;DHT22;150;52.352;14.058;2022-10-14T15:33:20;18.70;32.90
326;DHT22;150;52.352;14.058;2022-10-14T15:35:53;18.70;33.00
326;DHT22;150;52.352;14.058;2022-10-14T15:38:21;18.70;33.30
326;DHT22;150;52.352;14.058;2022-10-14T15:40:49;18.60;33.40
326;DHT22;150;52.352;14.058;2022-10-14T15:43:18;18.60;33.60
326;DHT22;150;52.352;14.058;2022-10-14T15:45:47;18.60;33.90
326;DHT22;150;52.352;14.058;2022-10-14T15:48:37;18.50;33.90
326;DHT22;150;52.352;14.058;2022-10-14T15:51:04;18.50;34.10
326;DHT22;150;52.352;14.058;2022-10-14T15:53:31;18.50;34.30
326;DHT22;150;52.352;14.058;2022-10-14T15:55:57;18.40;34.40
326;DHT22;150;52.352;14.058;2022-10-14T15:58:25;18.40;34.60
326;DHT22;150;52.352;14.058;2022-10-14T16:00:51;18.40;34.90
326;DHT22;150;52.352;14.058;2022-10-14T16:03:18;18.30;34.90
326;DHT22;150;52.352;14.058;2022-10-14T16:05:46;18.30;34.90
326;DHT22;150;52.352;14.058;2022-10-14T16:08:13;18.30;35.00
326;DHT22;150;52.352;14.058;2022-10-14T16:10:42;18.30;35.20
326;DHT22;150;52.352;14.058;2022-10-14T16:13:10;18.30;35.40
326;DHT22;150;52.352;14.058;2022-10-14T16:15:42;18.20;35.60
326;DHT22;150;52.352;14.058;2022-10-14T16:18:13;18.10;35.70
326;DHT22;150;52.352;14.058;2022-10-14T16:20:39;18.10;35.90
326;DHT22;150;52.352;14.058;2022-10-14T16:23:13;18.00;35.70
326;DHT22;150;52.352;14.058;2022-10-14T16:25:42;17.90;35.90
326;DHT22;150;52.352;14.058;2022-10-14T16:28:10;17.90;36.10
326;DHT22;150;52.352;14.058;2022-10-14T16:30:40;17.80;36.20
326;DHT22;150;52.352;14.058;2022-10-14T16:33:08;17.70;36.40
326;DHT22;150;52.352;14.058;2022-10-14T16:35:35;17.70;36.60
326;DHT22;150;52.352;14.058;2022-10-14T16:38:02;17.60;36.80
326;DHT22;150;52.352;14.058;2022-10-14T16:40:30;17.50;36.90
326;DHT22;150;52.352;14.058;2022-10-14T16:42:56;17.50;37.20
326;DHT22;150;52.352;14.058;2022-10-14T16:45:23;17.40;37.40
326;DHT22;150;52.352;14.058;2022-10-14T16:47:52;17.30;37.50
326;DHT22;150;52.352;14.058;2022-10-14T16:50:18;17.30;37.80
326;DHT22;150;52.352;14.058;2022-10-14T16:52:45;17.20;37.80
326;DHT22;150;52.352;14.058;2022-10-14T16:55:31;17.20;38.20
326;DHT22;150;52.352;14.058;2022-10-14T16:57:57;17.10;38.50
326;DHT22;150;52.352;14.058;2022-10-14T17:00:24;17.00;38.60
326;DHT22;150;52.352;14.058;2022-10-14T17:02:54;16.90;38.50
326;DHT22;150;52.352;14.058;2022-10-14T17:05:20;16.90;38.60
326;DHT22;150;52.352;14.058;2022-10-14T17:07:47;16.80;38.50
326;DHT22;150;52.352;14.058;2022-10-14T17:10:14;16.70;38.60
326;DHT22;150;52.352;14.058;2022-10-14T17:12:42;16.70;38.90
326;DHT22;150;52.352;14.058;2022-10-14T17:15:09;16.70;38.70